sensor_id;sensor_type;location;lat;lon;timestamp;P1;durP1;ratioP1;P2;durP2;ratioP2
41061;SDS011;26812;42.662;23.352;2022-09-25T00:01:13;12.57;;;8.73;;
41061;SDS011;26812;42.662;23.352;2022-09-25T00:07:00;16.25;;;8.88;;
41061;SDS011;26812;42.662;23.352;2022-09-25T00:09:38;13.32;;;8.75;;
41061;SDS011;26812;42.662;23.352;2022-09-25T00:12:03;12.85;;;8.63;;
41061;SDS011;26812;42.662;23.352;2022-09-25T00:14:29;13.90;;;8.50;;
41061;SDS011;26812;42.662;23.352;2022-09-25T00:16:54;14.40;;;10.23;;
41061;SDS011;26812;42.662;23.352;2022-09-25T00:19:20;15.90;;;8.60;;
41061;SDS011;26812;42.662;23.352;2022-09-25T00:22:04;14.70;;;8.77;;
41061;SDS011;26812;42.662;23.352;2022-09-25T00:27:21;15.32;;;9.05;;
41061;SDS011;26812;42.662;23.352;2022-09-25T00:33:08;15.80;;;9.23;;
41061;SDS011;26812;42.662;23.352;2022-09-25T00:35:34;17.63;;;9.20;;
41061;SDS011;26812;42.662;23.352;2022-09-25T00:38:05;12.65;;;8.88;;
41061;SDS011;26812;42.662;23.352;2022-09-25T00:40:31;12.68;;;8.63;;
41061;SDS011;26812;42.662;23.352;2022-09-25T00:42:57;17.63;;;10.32;;
41061;SDS011;26812;42.662;23.352;2022-09-25T00:45:22;14.85;;;8.18;;
41061;SDS011;26812;42.662;23.352;2022-09-25T00:48:01;12.93;;;9.15;;
41061;SDS011;26812;42.662;23.352;2022-09-25T00:50:37;17.15;;;9.63;;
41061;SDS011;26812;42.662;23.352;2022-09-25T00:53:08;14.50;;;8.88;;
41061;SDS011;26812;42.662;23.352;2022-09-25T00:55:46;14.88;;;8.82;;
41061;SDS011;26812;42.662;23.352;2022-09-25T00:58:12;11.05;;;8.57;;
41061;SDS011;26812;42.662;23.352;2022-09-25T01:03:25;15.68;;;9.00;;
41061;SDS011;26812;42.662;23.352;2022-09-25T01:05:51;17.05;;;8.70;;
41061;SDS011;26812;42.662;23.352;2022-09-25T01:08:19;15.10;;;8.18;;
41061;SDS011;26812;42.662;23.352;2022-09-25T01:30:29;10.93;;;7.75;;
41061;SDS011;26812;42.662;23.352;2022-09-25T01:33:16;13.38;;;8.32;;
41061;SDS011;26812;42.662;23.352;2022-09-25T01:35:58;13.02;;;8.63;;
41061;SDS011;26812;42.662;23.352;2022-09-25T01:38:40;14.65;;;8.13;;
41061;SDS011;26812;42.662;23.352;2022-09-25T01:41:19;12.63;;;8.30;;
41061;SDS011;26812;42.662;23.352;2022-09-25T01:47:16;13.48;;;7.90;;
41061;SDS011;26812;42.662;23.352;2022-09-25T01:52:50;11.68;;;8.07;;
41061;SDS011;26812;42.662;23.352;2022-09-25T01:55:21;10.60;;;8.40;;
41061;SDS011;26812;42.662;23.352;2022-09-25T01:57:53;11.32;;;7.95;;
41061;SDS011;26812;42.662;23.352;2022-09-25T02:00:24;11.00;;;7.38;;
41061;SDS011;26812;42.662;23.352;2022-09-25T02:03:00;14.85;;;8.05;;
41061;SDS011;26812;42.662;23.352;2022-09-25T02:05:40;10.27;;;7.78;;
41061;SDS011;26812;42.662;23.352;2022-09-25T02:08:20;12.38;;;8.10;;
41061;SDS011;26812;42.662;23.352;2022-09-25T02:10:51;11.68;;;8.55;;
41061;SDS011;26812;42.662;23.352;2022-09-25T02:13:22;12.18;;;7.47;;
41061;SDS011;26812;42.662;23.352;2022-09-25T02:15:53;11.75;;;8.07;;
41061;SDS011;26812;42.662;23.352;2022-09-25T02:18:35;12.47;;;8.83;;
41061;SDS011;26812;42.662;23.352;2022-09-25T02:21:39;10.10;;;7.22;;
41061;SDS011;26812;42.662;23.352;2022-09-25T02:26:50;7.82;;;5.35;;
41061;SDS011;26812;42.662;23.352;2022-09-25T02:29:16;9.95;;;6.95;;
41061;SDS011;26812;42.662;23.352;2022-09-25T02:34:13;10.57;;;7.10;;
41061;SDS011;26812;42.662;23.352;2022-09-25T02:36:40;13.00;;;6.82;;
41061;SDS011;26812;42.662;23.352;2022-09-25T02:39:07;11.32;;;6.07;;
41061;SDS011;26812;42.662;23.352;2022-09-25T02:41:38;11.63;;;6.70;;
41061;SDS011;26812;42.662;23.352;2022-09-25T02:52:34;10.50;;;6.55;;
41061;SDS011;26812;42.662;23.352;2022-09-25T02:55:20;10.23;;;6.72;;
41061;SDS011;26812;42.662;23.352;2022-09-25T03:00:36;9.18;;;6.97;;
41061;SDS011;26812;42.662;23.352;2022-09-25T03:03:04;8.50;;;6.97;;
41061;SDS011;26812;42.662;23.352;2022-09-25T03:05:33;9.65;;;6.50;;
41061;SDS011;26812;42.662;23.352;2022-09-25T03:08:00;10.73;;;6.38;;
41061;SDS011;26812;42.662;23.352;2022-09-25T03:10:45;7.88;;;5.95;;
41061;SDS011;26812;42.662;23.352;2022-09-25T03:15:40;8.13;;;6.07;;
41061;SDS011;26812;42.662;23.352;2022-09-25T03:18:09;10.68;;;6.22;;
41061;SDS011;26812;42.662;23.352;2022-09-25T03:20:36;8.43;;;6.22;;
41061;SDS011;26812;42.662;23.352;2022-09-25T03:23:01;10.50;;;6.13;;
41061;SDS011;26812;42.662;23.352;2022-09-25T03:25:27;8.55;;;7.30;;
41061;SDS011;26812;42.662;23.352;2022-09-25T03:27:52;12.23;;;6.35;;
41061;SDS011;26812;42.662;23.352;2022-09-25T03:30:17;9.52;;;6.97;;
41061;SDS011;26812;42.662;23.352;2022-09-25T03:32:43;9.07;;;5.32;;
41061;SDS011;26812;42.662;23.352;2022-09-25T03:35:08;9.27;;;6.50;;
41061;SDS011;26812;42.662;23.352;2022-09-25T03:37:34;8.73;;;6.07;;
41061;SDS011;26812;42.662;23.352;2022-09-25T03:39:59;9.82;;;7.25;;
41061;SDS011;26812;42.662;23.352;2022-09-25T03:42:32;8.57;;;6.78;;
41061;SDS011;26812;42.662;23.352;2022-09-25T03:44:57;12.77;;;7.15;;
41061;SDS011;26812;42.662;23.352;2022-09-25T03:47:22;9.25;;;6.55;;
41061;SDS011;26812;42.662;23.352;2022-09-25T03:49:48;9.00;;;6.80;;
41061;SDS011;26812;42.662;23.352;2022-09-25T03:52:13;8.60;;;6.15;;
41061;SDS011;26812;42.662;23.352;2022-09-25T03:54:39;11.80;;;6.60;;
41061;SDS011;26812;42.662;23.352;2022-09-25T03:57:05;7.03;;;5.70;;
41061;SDS011;26812;42.662;23.352;2022-09-25T03:59:30;9.20;;;6.63;;
41061;SDS011;26812;42.662;23.352;2022-09-25T04:04:40;9.05;;;6.07;;
41061;SDS011;26812;42.662;23.352;2022-09-25T04:07:05;9.55;;;7.07;;
41061;SDS011;26812;42.662;23.352;2022-09-25T04:09:35;10.23;;;7.32;;
41061;SDS011;26812;42.662;23.352;2022-09-25T04:12:00;9.48;;;6.72;;
41061;SDS011;26812;42.662;23.352;2022-09-25T04:14:26;9.13;;;6.57;;
41061;SDS011;26812;42.662;23.352;2022-09-25T04:16:51;10.27;;;6.70;;
41061;SDS011;26812;42.662;23.352;2022-09-25T04:19:17;9.90;;;7.38;;
41061;SDS011;26812;42.662;23.352;2022-09-25T04:21:45;12.20;;;6.95;;
41061;SDS011;26812;42.662;23.352;2022-09-25T04:24:11;11.32;;;7.45;;
41061;SDS011;26812;42.662;23.352;2022-09-25T04:26:55;8.90;;;7.32;;
41061;SDS011;26812;42.662;23.352;2022-09-25T04:29:20;9.77;;;7.55;;
41061;SDS011;26812;42.662;23.352;2022-09-25T04:31:48;11.55;;;7.10;;
41061;SDS011;26812;42.662;23.352;2022-09-25T04:34:33;10.02;;;7.55;;
41061;SDS011;26812;42.662;23.352;2022-09-25T04:36:59;10.05;;;7.53;;
41061;SDS011;26812;42.662;23.352;2022-09-25T04:39:25;12.45;;;7.88;;
41061;SDS011;26812;42.662;23.352;2022-09-25T04:41:50;10.75;;;8.27;;
41061;SDS011;26812;42.662;23.352;2022-09-25T04:44:16;10.82;;;7.80;;
41061;SDS011;26812;42.662;23.352;2022-09-25T04:46:41;12.52;;;8.30;;
41061;SDS011;26812;42.662;23.352;2022-09-25T04:49:07;9.02;;;7.15;;
41061;SDS011;26812;42.662;23.352;2022-09-25T04:51:32;9.60;;;6.57;;
41061;SDS011;26812;42.662;23.352;2022-09-25T04:53:58;9.27;;;6.80;;
41061;SDS011;26812;42.662;23.352;2022-09-25T04:56:23;9.63;;;7.20;;
41061;SDS011;26812;42.662;23.352;2022-09-25T04:58:50;6.47;;;5.38;;
41061;SDS011;26812;42.662;23.352;2022-09-25T05:01:17;7.53;;;5.40;;
41061;SDS011;26812;42.662;23.352;2022-09-25T05:03:47;7.82;;;6.10;;
41061;SDS011;26812;42.662;23.352;2022-09-25T05:06:17;8.38;;;6.38;;
41061;SDS011;26812;42.662;23.352;2022-09-25T05:08:43;10.00;;;5.47;;
41061;SDS011;26812;42.662;23.352;2022-09-25T05:11:11;8.18;;;4.80;;
41061;SDS011;26812;42.662;23.352;2022-09-25T05:13:36;6.03;;;5.35;;
41061;SDS011;26812;42.662;23.352;2022-09-25T05:16:07;8.07;;;4.88;;
41061;SDS011;26812;42.662;23.352;2022-09-25T05:18:33;5.82;;;4.30;;
41061;SDS011;26812;42.662;23.352;2022-09-25T05:21:01;6.47;;;4.85;;
41061;SDS011;26812;42.662;23.352;2022-09-25T05:23:30;6.47;;;4.75;;
41061;SDS011;26812;42.662;23.352;2022-09-25T05:25:55;8.88;;;4.50;;
41061;SDS011;26812;42.662;23.352;2022-09-25T05:28:27;5.90;;;4.50;;
41061;SDS011;26812;42.662;23.352;2022-09-25T05:31:00;6.57;;;4.97;;
41061;SDS011;26812;42.662;23.352;2022-09-25T05:33:27;7.70;;;5.95;;
41061;SDS011;26812;42.662;23.352;2022-09-25T05:35:53;8.23;;;5.80;;
41061;SDS011;26812;42.662;23.352;2022-09-25T05:38:18;7.60;;;5.80;;
41061;SDS011;26812;42.662;23.352;2022-09-25T05:40:43;8.18;;;6.80;;
41061;SDS011;26812;42.662;23.352;2022-09-25T05:43:09;8.25;;;6.88;;
41061;SDS011;26812;42.662;23.352;2022-09-25T05:45:36;10.32;;;6.85;;
41061;SDS011;26812;42.662;23.352;2022-09-25T05:48:05;11.55;;;7.63;;
41061;SDS011;26812;42.662;23.352;2022-09-25T05:50:32;9.43;;;7.13;;
41061;SDS011;26812;42.662;23.352;2022-09-25T05:52:59;10.10;;;7.40;;
41061;SDS011;26812;42.662;23.352;2022-09-25T05:55:26;7.93;;;5.80;;
41061;SDS011;26812;42.662;23.352;2022-09-25T05:57:53;7.95;;;6.05;;
41061;SDS011;26812;42.662;23.352;2022-09-25T06:00:23;9.90;;;7.57;;
41061;SDS011;26812;42.662;23.352;2022-09-25T06:02:50;11.57;;;8.55;;
41061;SDS011;26812;42.662;23.352;2022-09-25T06:05:16;12.50;;;9.38;;
41061;SDS011;26812;42.662;23.352;2022-09-25T06:07:41;11.45;;;7.70;;
41061;SDS011;26812;42.662;23.352;2022-09-25T06:10:07;11.85;;;9.60;;
41061;SDS011;26812;42.662;23.352;2022-09-25T06:12:33;15.27;;;10.70;;
41061;SDS011;26812;42.662;23.352;2022-09-25T06:14:59;16.95;;;11.05;;
41061;SDS011;26812;42.662;23.352;2022-09-25T06:17:25;14.10;;;10.75;;
41061;SDS011;26812;42.662;23.352;2022-09-25T06:19:50;18.98;;;11.07;;
41061;SDS011;26812;42.662;23.352;2022-09-25T06:22:16;10.70;;;9.13;;
41061;SDS011;26812;42.662;23.352;2022-09-25T06:24:41;11.98;;;8.85;;
41061;SDS011;26812;42.662;23.352;2022-09-25T06:27:07;14.50;;;9.23;;
41061;SDS011;26812;42.662;23.352;2022-09-25T06:29:33;12.48;;;8.80;;
41061;SDS011;26812;42.662;23.352;2022-09-25T06:31:58;11.88;;;9.20;;
41061;SDS011;26812;42.662;23.352;2022-09-25T06:34:24;14.85;;;9.07;;
41061;SDS011;26812;42.662;23.352;2022-09-25T06:36:51;13.77;;;9.60;;
41061;SDS011;26812;42.662;23.352;2022-09-25T06:39:16;12.35;;;8.07;;
41061;SDS011;26812;42.662;23.352;2022-09-25T06:41:41;15.30;;;8.52;;
41061;SDS011;26812;42.662;23.352;2022-09-25T06:44:07;10.68;;;8.20;;
41061;SDS011;26812;42.662;23.352;2022-09-25T06:46:33;11.13;;;8.70;;
41061;SDS011;26812;42.662;23.352;2022-09-25T06:48:59;8.23;;;7.07;;
41061;SDS011;26812;42.662;23.352;2022-09-25T06:51:25;11.07;;;8.70;;
41061;SDS011;26812;42.662;23.352;2022-09-25T06:53:56;13.00;;;8.48;;
41061;SDS011;26812;42.662;23.352;2022-09-25T06:56:22;13.75;;;8.45;;
41061;SDS011;26812;42.662;23.352;2022-09-25T06:58:48;11.15;;;8.77;;
41061;SDS011;26812;42.662;23.352;2022-09-25T07:01:13;13.63;;;8.57;;
41061;SDS011;26812;42.662;23.352;2022-09-25T07:03:39;12.50;;;8.95;;
41061;SDS011;26812;42.662;23.352;2022-09-25T07:06:16;11.57;;;8.25;;
41061;SDS011;26812;42.662;23.352;2022-09-25T07:08:42;11.43;;;8.57;;
41061;SDS011;26812;42.662;23.352;2022-09-25T07:11:11;10.40;;;8.30;;
41061;SDS011;26812;42.662;23.352;2022-09-25T07:13:41;10.70;;;7.82;;
41061;SDS011;26812;42.662;23.352;2022-09-25T07:16:09;9.77;;;8.77;;
41061;SDS011;26812;42.662;23.352;2022-09-25T07:18:40;11.15;;;7.90;;
41061;SDS011;26812;42.662;23.352;2022-09-25T07:21:12;15.27;;;8.35;;
41061;SDS011;26812;42.662;23.352;2022-09-25T07:23:39;14.57;;;9.15;;
41061;SDS011;26812;42.662;23.352;2022-09-25T07:28:31;11.93;;;8.75;;
41061;SDS011;26812;42.662;23.352;2022-09-25T07:30:57;11.52;;;8.60;;
41061;SDS011;26812;42.662;23.352;2022-09-25T07:33:22;9.18;;;7.78;;
41061;SDS011;26812;42.662;23.352;2022-09-25T07:35:49;8.40;;;7.35;;
41061;SDS011;26812;42.662;23.352;2022-09-25T07:38:23;10.85;;;7.68;;
41061;SDS011;26812;42.662;23.352;2022-09-25T07:40:51;10.93;;;7.38;;
41061;SDS011;26812;42.662;23.352;2022-09-25T07:43:17;8.65;;;7.22;;
41061;SDS011;26812;42.662;23.352;2022-09-25T07:45:47;8.57;;;6.47;;
41061;SDS011;26812;42.662;23.352;2022-09-25T07:48:17;8.02;;;6.13;;
41061;SDS011;26812;42.662;23.352;2022-09-25T07:50:43;8.32;;;6.47;;
41061;SDS011;26812;42.662;23.352;2022-09-25T07:53:09;10.18;;;6.68;;
41061;SDS011;26812;42.662;23.352;2022-09-25T07:55:35;9.48;;;6.25;;
41061;SDS011;26812;42.662;23.352;2022-09-25T07:58:00;8.88;;;6.35;;
41061;SDS011;26812;42.662;23.352;2022-09-25T08:00:26;9.98;;;6.38;;
41061;SDS011;26812;42.662;23.352;2022-09-25T08:02:55;7.28;;;6.20;;
41061;SDS011;26812;42.662;23.352;2022-09-25T08:05:23;8.10;;;6.22;;
41061;SDS011;26812;42.662;23.352;2022-09-25T08:07:49;8.95;;;6.22;;
41061;SDS011;26812;42.662;23.352;2022-09-25T08:10:14;8.95;;;6.38;;
41061;SDS011;26812;42.662;23.352;2022-09-25T08:12:40;6.20;;;5.55;;
41061;SDS011;26812;42.662;23.352;2022-09-25T08:15:07;6.85;;;5.60;;
41061;SDS011;26812;42.662;23.352;2022-09-25T08:17:32;9.65;;;6.07;;
41061;SDS011;26812;42.662;23.352;2022-09-25T08:19:58;9.52;;;5.63;;
41061;SDS011;26812;42.662;23.352;2022-09-25T08:22:25;9.40;;;6.32;;
41061;SDS011;26812;42.662;23.352;2022-09-25T08:24:50;8.98;;;5.78;;
41061;SDS011;26812;42.662;23.352;2022-09-25T08:27:16;9.43;;;5.82;;
41061;SDS011;26812;42.662;23.352;2022-09-25T08:29:42;9.43;;;6.55;;
41061;SDS011;26812;42.662;23.352;2022-09-25T08:32:07;7.85;;;5.78;;
41061;SDS011;26812;42.662;23.352;2022-09-25T08:34:33;6.68;;;5.50;;
41061;SDS011;26812;42.662;23.352;2022-09-25T08:36:59;7.97;;;4.88;;
41061;SDS011;26812;42.662;23.352;2022-09-25T08:39:24;5.18;;;4.53;;
41061;SDS011;26812;42.662;23.352;2022-09-25T08:41:53;5.85;;;4.85;;
41061;SDS011;26812;42.662;23.352;2022-09-25T08:44:27;6.50;;;5.07;;
41061;SDS011;26812;42.662;23.352;2022-09-25T08:46:59;7.10;;;5.72;;
41061;SDS011;26812;42.662;23.352;2022-09-25T08:52:36;8.80;;;5.55;;
41061;SDS011;26812;42.662;23.352;2022-09-25T08:55:15;5.10;;;4.60;;
41061;SDS011;26812;42.662;23.352;2022-09-25T08:57:46;6.93;;;5.47;;
41061;SDS011;26812;42.662;23.352;2022-09-25T09:00:18;6.00;;;5.18;;
41061;SDS011;26812;42.662;23.352;2022-09-25T09:05:50;6.57;;;4.95;;
41061;SDS011;26812;42.662;23.352;2022-09-25T09:08:24;7.53;;;4.20;;
41061;SDS011;26812;42.662;23.352;2022-09-25T09:11:00;5.32;;;4.43;;
41061;SDS011;26812;42.662;23.352;2022-09-25T09:13:34;4.82;;;4.32;;
41061;SDS011;26812;42.662;23.352;2022-09-25T09:16:27;5.28;;;4.28;;
41061;SDS011;26812;42.662;23.352;2022-09-25T09:19:05;5.75;;;4.03;;
41061;SDS011;26812;42.662;23.352;2022-09-25T09:35:01;3.45;;;3.15;;
41061;SDS011;26812;42.662;23.352;2022-09-25T09:40:22;5.25;;;3.63;;
41061;SDS011;26812;42.662;23.352;2022-09-25T09:51:14;3.40;;;3.10;;
41061;SDS011;26812;42.662;23.352;2022-09-25T09:53:47;4.35;;;3.58;;
41061;SDS011;26812;42.662;23.352;2022-09-25T09:56:27;4.25;;;3.40;;
41061;SDS011;26812;42.662;23.352;2022-09-25T09:58:56;4.07;;;3.53;;
41061;SDS011;26812;42.662;23.352;2022-09-25T10:01:28;4.93;;;3.92;;
41061;SDS011;26812;42.662;23.352;2022-09-25T10:04:21;4.22;;;3.83;;
41061;SDS011;26812;42.662;23.352;2022-09-25T10:06:54;5.22;;;3.50;;
41061;SDS011;26812;42.662;23.352;2022-09-25T10:09:26;4.00;;;3.33;;
41061;SDS011;26812;42.662;23.352;2022-09-25T10:11:58;4.72;;;3.00;;
41061;SDS011;26812;42.662;23.352;2022-09-25T10:16:56;4.05;;;3.40;;
41061;SDS011;26812;42.662;23.352;2022-09-25T10:19:23;5.55;;;3.83;;
41061;SDS011;26812;42.662;23.352;2022-09-25T10:24:52;4.93;;;4.10;;
41061;SDS011;26812;42.662;23.352;2022-09-25T10:35:39;3.17;;;2.90;;
41061;SDS011;26812;42.662;23.352;2022-09-25T10:40:58;4.78;;;2.92;;
41061;SDS011;26812;42.662;23.352;2022-09-25T10:43:58;4.07;;;2.83;;
41061;SDS011;26812;42.662;23.352;2022-09-25T10:46:29;3.58;;;2.88;;
41061;SDS011;26812;42.662;23.352;2022-09-25T10:49:17;3.72;;;3.00;;
41061;SDS011;26812;42.662;23.352;2022-09-25T10:52:07;3.28;;;2.92;;
41061;SDS011;26812;42.662;23.352;2022-09-25T10:54:34;3.22;;;2.70;;
41061;SDS011;26812;42.662;23.352;2022-09-25T10:57:01;3.92;;;3.03;;
41061;SDS011;26812;42.662;23.352;2022-09-25T10:59:46;4.22;;;3.50;;
41061;SDS011;26812;42.662;23.352;2022-09-25T11:02:29;3.30;;;3.00;;
41061;SDS011;26812;42.662;23.352;2022-09-25T11:04:59;3.08;;;2.63;;
41061;SDS011;26812;42.662;23.352;2022-09-25T11:07:26;3.53;;;2.97;;
41061;SDS011;26812;42.662;23.352;2022-09-25T11:09:58;3.50;;;3.10;;
41061;SDS011;26812;42.662;23.352;2022-09-25T11:12:25;4.10;;;3.08;;
41061;SDS011;26812;42.662;23.352;2022-09-25T11:15:03;4.93;;;3.50;;
41061;SDS011;26812;42.662;23.352;2022-09-25T11:22:40;2.92;;;2.70;;
41061;SDS011;26812;42.662;23.352;2022-09-25T11:25:14;2.75;;;2.40;;
41061;SDS011;26812;42.662;23.352;2022-09-25T11:27:50;3.53;;;2.92;;
41061;SDS011;26812;42.662;23.352;2022-09-25T11:30:20;5.20;;;2.60;;
41061;SDS011;26812;42.662;23.352;2022-09-25T11:38:27;3.17;;;2.75;;
41061;SDS011;26812;42.662;23.352;2022-09-25T11:41:37;3.22;;;2.97;;
41061;SDS011;26812;42.662;23.352;2022-09-25T11:49:29;4.00;;;2.53;;
41061;SDS011;26812;42.662;23.352;2022-09-25T11:55:31;2.55;;;2.35;;
41061;SDS011;26812;42.662;23.352;2022-09-25T12:12:09;2.55;;;2.13;;
41061;SDS011;26812;42.662;23.352;2022-09-25T12:20:44;2.38;;;2.17;;
41061;SDS011;26812;42.662;23.352;2022-09-25T12:23:28;2.20;;;2.00;;
41061;SDS011;26812;42.662;23.352;2022-09-25T12:26:02;2.50;;;2.30;;
41061;SDS011;26812;42.662;23.352;2022-09-25T12:36:41;3.33;;;2.45;;
41061;SDS011;26812;42.662;23.352;2022-09-25T12:44:18;3.88;;;2.88;;
41061;SDS011;26812;42.662;23.352;2022-09-25T12:47:01;2.90;;;2.60;;
41061;SDS011;26812;42.662;23.352;2022-09-25T12:49:37;3.22;;;2.65;;
41061;SDS011;26812;42.662;23.352;2022-09-25T12:52:28;3.03;;;2.63;;
41061;SDS011;26812;42.662;23.352;2022-09-25T13:02:42;2.10;;;1.90;;
41061;SDS011;26812;42.662;23.352;2022-09-25T13:05:32;3.72;;;2.30;;
41061;SDS011;26812;42.662;23.352;2022-09-25T13:10:36;2.15;;;1.98;;
41061;SDS011;26812;42.662;23.352;2022-09-25T13:13:08;3.50;;;2.22;;
41061;SDS011;26812;42.662;23.352;2022-09-25T13:15:43;2.10;;;1.90;;
41061;SDS011;26812;42.662;23.352;2022-09-25T13:18:15;2.67;;;1.90;;
41061;SDS011;26812;42.662;23.352;2022-09-25T13:23:38;4.50;;;2.13;;
41061;SDS011;26812;42.662;23.352;2022-09-25T13:26:09;3.03;;;1.98;;
41061;SDS011;26812;42.662;23.352;2022-09-25T13:28:38;2.88;;;2.13;;
41061;SDS011;26812;42.662;23.352;2022-09-25T13:31:12;2.15;;;1.83;;
41061;SDS011;26812;42.662;23.352;2022-09-25T13:33:52;2.00;;;1.75;;
41061;SDS011;26812;42.662;23.352;2022-09-25T13:38:54;2.55;;;1.90;;
41061;SDS011;26812;42.662;23.352;2022-09-25T13:42:24;2.58;;;2.10;;
41061;SDS011;26812;42.662;23.352;2022-09-25T13:49:49;2.22;;;1.98;;
41061;SDS011;26812;42.662;23.352;2022-09-25T13:52:29;2.25;;;2.05;;
41061;SDS011;26812;42.662;23.352;2022-09-25T13:55:41;2.85;;;2.05;;
41061;SDS011;26812;42.662;23.352;2022-09-25T14:05:58;2.25;;;2.05;;
41061;SDS011;26812;42.662;23.352;2022-09-25T14:08:26;3.72;;;2.10;;
41061;SDS011;26812;42.662;23.352;2022-09-25T14:10:55;2.17;;;1.98;;
41061;SDS011;26812;42.662;23.352;2022-09-25T14:13:22;2.45;;;2.22;;
41061;SDS011;26812;42.662;23.352;2022-09-25T14:15:51;3.03;;;2.08;;
41061;SDS011;26812;42.662;23.352;2022-09-25T14:18:24;3.22;;;2.50;;
41061;SDS011;26812;42.662;23.352;2022-09-25T14:20:57;2.30;;;2.00;;
41061;SDS011;26812;42.662;23.352;2022-09-25T14:23:25;2.30;;;1.70;;
41061;SDS011;26812;42.662;23.352;2022-09-25T14:26:00;2.70;;;1.83;;
41061;SDS011;26812;42.662;23.352;2022-09-25T14:28:53;2.67;;;2.13;;
41061;SDS011;26812;42.662;23.352;2022-09-25T14:48:23;2.88;;;2.47;;
41061;SDS011;26812;42.662;23.352;2022-09-25T14:50:55;2.17;;;1.98;;
41061;SDS011;26812;42.662;23.352;2022-09-25T14:53:32;2.95;;;2.08;;
41061;SDS011;26812;42.662;23.352;2022-09-25T14:56:06;2.25;;;2.05;;
41061;SDS011;26812;42.662;23.352;2022-09-25T14:58:36;2.58;;;2.20;;
41061;SDS011;26812;42.662;23.352;2022-09-25T15:01:29;3.55;;;2.55;;
41061;SDS011;26812;42.662;23.352;2022-09-25T15:03:57;2.47;;;2.10;;
41061;SDS011;26812;42.662;23.352;2022-09-25T15:06:35;2.33;;;1.92;;
41061;SDS011;26812;42.662;23.352;2022-09-25T15:11:59;3.22;;;2.35;;
41061;SDS011;26812;42.662;23.352;2022-09-25T15:14:39;7.20;;;4.50;;
41061;SDS011;26812;42.662;23.352;2022-09-25T15:17:21;8.13;;;4.60;;
41061;SDS011;26812;42.662;23.352;2022-09-25T15:19:47;6.00;;;3.15;;
41061;SDS011;26812;42.662;23.352;2022-09-25T15:22:17;5.05;;;2.13;;
41061;SDS011;26812;42.662;23.352;2022-09-25T15:24:47;3.88;;;1.90;;
41061;SDS011;26812;42.662;23.352;2022-09-25T15:27:16;6.15;;;2.42;;
41061;SDS011;26812;42.662;23.352;2022-09-25T15:29:43;5.13;;;2.65;;
41061;SDS011;26812;42.662;23.352;2022-09-25T15:32:23;2.38;;;2.00;;
41061;SDS011;26812;42.662;23.352;2022-09-25T15:37:41;3.35;;;2.40;;
41061;SDS011;26812;42.662;23.352;2022-09-25T15:40:16;3.50;;;2.30;;
41061;SDS011;26812;42.662;23.352;2022-09-25T15:42:47;3.08;;;2.05;;
41061;SDS011;26812;42.662;23.352;2022-09-25T15:45:33;3.30;;;2.03;;
41061;SDS011;26812;42.662;23.352;2022-09-25T15:48:20;4.28;;;2.15;;
41061;SDS011;26812;42.662;23.352;2022-09-25T15:50:49;2.38;;;2.17;;
41061;SDS011;26812;42.662;23.352;2022-09-25T15:53:23;2.03;;;1.65;;
41061;SDS011;26812;42.662;23.352;2022-09-25T15:58:44;4.63;;;2.03;;
41061;SDS011;26812;42.662;23.352;2022-09-25T16:01:18;2.55;;;1.88;;
41061;SDS011;26812;42.662;23.352;2022-09-25T16:04:06;2.60;;;2.13;;
41061;SDS011;26812;42.662;23.352;2022-09-25T16:06:52;3.35;;;2.53;;
41061;SDS011;26812;42.662;23.352;2022-09-25T16:09:19;3.38;;;3.08;;
41061;SDS011;26812;42.662;23.352;2022-09-25T16:11:47;5.47;;;2.92;;
41061;SDS011;26812;42.662;23.352;2022-09-25T16:14:17;5.68;;;3.08;;
41061;SDS011;26812;42.662;23.352;2022-09-25T16:16:51;2.63;;;2.22;;
41061;SDS011;26812;42.662;23.352;2022-09-25T16:21:54;3.78;;;3.47;;
41061;SDS011;26812;42.662;23.352;2022-09-25T16:24:23;5.93;;;3.60;;
41061;SDS011;26812;42.662;23.352;2022-09-25T16:27:00;3.83;;;3.33;;
41061;SDS011;26812;42.662;23.352;2022-09-25T16:29:37;6.10;;;3.33;;
41061;SDS011;26812;42.662;23.352;2022-09-25T16:32:05;3.53;;;2.72;;
41061;SDS011;26812;42.662;23.352;2022-09-25T16:34:34;3.60;;;2.83;;
41061;SDS011;26812;42.662;23.352;2022-09-25T16:37:01;3.10;;;2.80;;
41061;SDS011;26812;42.662;23.352;2022-09-25T16:42:17;2.67;;;2.47;;
41061;SDS011;26812;42.662;23.352;2022-09-25T16:44:46;5.37;;;2.10;;
41061;SDS011;26812;42.662;23.352;2022-09-25T16:47:18;2.42;;;2.20;;
41061;SDS011;26812;42.662;23.352;2022-09-25T16:49:48;3.13;;;2.60;;
41061;SDS011;26812;42.662;23.352;2022-09-25T16:52:21;7.10;;;2.70;;
41061;SDS011;26812;42.662;23.352;2022-09-25T16:54:48;2.90;;;2.40;;
41061;SDS011;26812;42.662;23.352;2022-09-25T16:57:18;2.63;;;2.20;;
41061;SDS011;26812;42.662;23.352;2022-09-25T16:59:44;3.83;;;2.25;;
41061;SDS011;26812;42.662;23.352;2022-09-25T17:02:31;3.20;;;2.53;;
41061;SDS011;26812;42.662;23.352;2022-09-25T17:05:09;3.97;;;2.10;;
41061;SDS011;26812;42.662;23.352;2022-09-25T17:07:48;3.45;;;2.50;;
41061;SDS011;26812;42.662;23.352;2022-09-25T17:10:15;3.72;;;2.55;;
41061;SDS011;26812;42.662;23.352;2022-09-25T17:12:43;3.75;;;3.17;;
41061;SDS011;26812;42.662;23.352;2022-09-25T17:15:14;2.63;;;2.42;;
41061;SDS011;26812;42.662;23.352;2022-09-25T17:17:41;5.95;;;3.00;;
41061;SDS011;26812;42.662;23.352;2022-09-25T17:20:08;5.00;;;3.40;;
41061;SDS011;26812;42.662;23.352;2022-09-25T17:22:35;4.63;;;3.63;;
41061;SDS011;26812;42.662;23.352;2022-09-25T17:25:00;5.32;;;3.20;;
41061;SDS011;26812;42.662;23.352;2022-09-25T17:27:30;4.20;;;3.20;;
41061;SDS011;26812;42.662;23.352;2022-09-25T17:29:56;4.60;;;3.28;;
41061;SDS011;26812;42.662;23.352;2022-09-25T17:32:21;4.15;;;2.90;;
41061;SDS011;26812;42.662;23.352;2022-09-25T17:34:47;4.85;;;2.95;;
41061;SDS011;26812;42.662;23.352;2022-09-25T17:37:12;4.05;;;2.80;;
41061;SDS011;26812;42.662;23.352;2022-09-25T17:39:38;8.27;;;4.30;;
41061;SDS011;26812;42.662;23.352;2022-09-25T17:42:03;5.43;;;3.80;;
41061;SDS011;26812;42.662;23.352;2022-09-25T17:44:29;5.97;;;4.53;;
41061;SDS011;26812;42.662;23.352;2022-09-25T17:46:54;5.95;;;4.78;;
41061;SDS011;26812;42.662;23.352;2022-09-25T17:49:20;6.53;;;4.97;;
41061;SDS011;26812;42.662;23.352;2022-09-25T17:51:47;6.65;;;4.70;;
41061;SDS011;26812;42.662;23.352;2022-09-25T17:54:13;8.13;;;4.15;;
41061;SDS011;26812;42.662;23.352;2022-09-25T17:56:39;6.60;;;4.10;;
41061;SDS011;26812;42.662;23.352;2022-09-25T17:59:07;6.50;;;4.68;;
41061;SDS011;26812;42.662;23.352;2022-09-25T18:01:33;10.95;;;4.78;;
41061;SDS011;26812;42.662;23.352;2022-09-25T18:03:59;10.68;;;4.80;;
41061;SDS011;26812;42.662;23.352;2022-09-25T18:06:27;7.47;;;4.00;;
41061;SDS011;26812;42.662;23.352;2022-09-25T18:08:55;9.38;;;5.07;;
41061;SDS011;26812;42.662;23.352;2022-09-25T18:11:22;11.82;;;6.75;;
41061;SDS011;26812;42.662;23.352;2022-09-25T18:13:53;7.57;;;4.32;;
41061;SDS011;26812;42.662;23.352;2022-09-25T18:16:31;6.22;;;4.82;;
41061;SDS011;26812;42.662;23.352;2022-09-25T18:19:03;8.63;;;4.53;;
41061;SDS011;26812;42.662;23.352;2022-09-25T18:21:47;5.63;;;4.05;;
41061;SDS011;26812;42.662;23.352;2022-09-25T18:24:31;7.35;;;5.50;;
41061;SDS011;26812;42.662;23.352;2022-09-25T18:26:57;11.10;;;7.13;;
41061;SDS011;26812;42.662;23.352;2022-09-25T18:29:24;9.50;;;7.30;;
41061;SDS011;26812;42.662;23.352;2022-09-25T18:31:50;9.23;;;5.82;;
41061;SDS011;26812;42.662;23.352;2022-09-25T18:34:15;8.32;;;5.53;;